Fall River Mills, CA (96028)

3:58 PM PDT on September 22, 2014 (GMT -0700)
Glenburn | Change Station
CLOSE
Current Station
Personal Weather Station
Location: Fall River Mills, CA
Elevation: 3347 ft
Nearby Weather Stations
Active Advisory: Fire Weather Warning

Elev 3347 ft 41.08 °N, 121.54 °W | Updated 1 second ago

Clear
Clear
84.7 °F
Feels Like 82 °F
N
6.9
Wind Variable Wind from North
Gusts 6.9 mph

Today
High -- | Low -- °F
--% Chance of Precip.
Yesterday
High -- | Low -- °F
Precip. -- in
6:53 AM 7:02 PM
Waning Crescent, 2% visible
Pressure 30.01 in
Visibility 10.0 miles
Clouds Clear
Heat Index 82 °F
Dew Point 39 °F
Humidity 20%
Rainfall 0.00 in
Snow Depth 0 in , 0 in , 0 in
UV 6 out of 12
Pollen 5.50 out of 12
Air Quality Not available.
Flu Activity Not available.
METAR KMHS 222156Z AUTO 00000KT 10SM CLR 28/08 A3004 RMK AO2 SLP162 T02780083

More Conditions Fewer Conditions

Pressure 30.01 in
Visibility 10.0 miles
Clouds Clear
Heat Index 82 °F
Dew Point 39 °F
Humidity 20%
Rainfall 0.00 in
Snow Depth 0 in , 0 in , 0 in
UV 6 out of 12
Pollen 5.50 out of 12
Air Quality Not available.
Flu Activity Not available.
METAR KMHS 222156Z AUTO 00000KT 10SM CLR 28/08 A3004 RMK AO2 SLP162 T02780083

More Conditions Fewer Conditions

10-Day Weather Forecast

Almanac

Astronomy

Sep. 22, 2014 Rise Set
Actual Time 6:53 AM PDT 7:02 PM PDT
Civil Twilight 6:26 AM PDT 7:30 PM PDT
Nautical Twilight 5:53 AM PDT 8:02 PM PDT
Astronomical Twilight 5:21 AM PDT 8:35 PM PDT
Moon 5:26 AM PDT 6:13 PM PDT
Length of Visible Light 13h 04m
Length of Day
12h 09m
Tomorrow will be 2m 43s shorter.
Waning Crescent, 2% of the Moon is Illuminated
Today
Waning Crescent
Sep 24
New
Oct 1
First Quarter
Oct 8
Full
Oct 15
Last Quarter

Today's Extremes

State Highs State Lows

Community

WunderPhotos

Upload Photos

1,755,545 photos uploaded!

Nearby

Snow Depth

Station Depth Elevation
Burnside Lake 0 in 8139 ft
Adin Mountain 0 in 6200 ft
Leavitt Meadows 0 in 7200 ft

Earthquake Activity

City Distance Mag. Time & Date
Lakeview, Oregon 112 miles 3.0 7:28 PM PDT
2014-09-21
Lakeview, Oregon 111 miles 2.5 2:45 AM PDT
2014-09-20
Lakeview, Oregon 111 miles 2.5 10:12 PM PDT
2014-09-19
Lakeview, Oregon 111 miles 2.9 7:40 PM PDT
2014-09-19
Minimum magnitude displayed is 2.5.

Coastal Water Temperatures

Place Temperature
No Stations Reporting

Nearby Weather Stations